Statewide Weather Sensors

Route Weather Station Name Milepost Date / Time Surface Status Surface Temp Precip Intensity Wind Avg Wind Gust Dir Dewpoint Humidity Air Temp Visibility
I 25 Wyo Hill 3.52 Oct 18, 2021 01:20 am     None None 9 mph 12 mph NW 23.0°F 38% 48.2°F > 1/2 mi
I 25 Whitaker 28.1 Oct 18, 2021 01:20 am Dry 42.8°F None None 10 mph 12 mph W 23.0°F 49% 41.0°F > 1/2 mi
I 25 Bear Creek 46.77 Oct 18, 2021 01:20 am Dry 49.6°F None None 11 mph 12 mph W 23.0°F 34% 50.0°F > 1/2 mi
I 25 Bordeaux 70.8 Oct 18, 2021 01:20 am Dry 53.4°F None None 12 mph 20 mph SW 24.8°F 30% 55.4°F > 1/2 mi
I 25 Coleman 98.7 Oct 18, 2021 01:20 am Dry 49.1°F None None 3 mph 7 mph SW 32.0°F 45% 53.6°F > 1/2 mi
I 25 Platte/Converse County Line 119.9 Oct 18, 2021 01:20 am Dry 43.7°F None None 3 mph 3 mph SE 33.8°F 60% 46.4°F < 1/4 mi
I 25 Deer Creek 164.2 Oct 18, 2021 01:20 am Dry 51.4°F None None 9 mph 12 mph NW 30.2°F 37% 55.4°F > 1/2 mi
I 25 Hat Six 181.67 Oct 18, 2021 01:20 am N/A   None None 14 mph 29 mph SW 30.2°F 31% 60.8°F > 1/2 mi
I 25 F Street Hill 189.51 Oct 18, 2021 01:20 am Dry 52.7°F None None 17 mph 23 mph SW 30.2°F 33% 59.0°F > 1/2 mi
I 25 Twenty Mile Hill 207.2 Oct 18, 2021 01:20 am     None None 17 mph 21 mph SW 32.0°F 46% 51.8°F > 1/2 mi
I 25 Smokey Gap 228.58 Oct 18, 2021 01:20 am Dry 45.7°F None None 18 mph 26 mph S 32.0°F 43% 53.6°F > 1/2 mi
I 25 Tisdale 238.87 Oct 18, 2021 01:21 am Dry 44.4°F None None 6 mph 11 mph S 32.0°F 48% 50.0°F > 1/2 mi
I 25 I-25 Divide 267.3 Aug 30, 2021 08:44 am                      
I 80 Evanston POE .06 Oct 18, 2021 01:20 am Dry 37.9°F None   2 mph 1 mph E 24.8°F 70% 33.8°F > 1/2 mi
I 80 Evanston 4.2 Oct 18, 2021 01:20 am Dry 66.7°F None None 1 mph 3 mph N 26.6°F 64% 37.4°F > 1/2 mi
I 80 Bear River Drive 6.94 Oct 18, 2021 01:20 am Dry 38.5°F None   2 mph 6 mph E 26.6°F 70% 33.8°F > 1/2 mi
I 80 Painter 10.16 Oct 18, 2021 01:20 am Dry 43.5°F None None 4 mph 7 mph NE 24.8°F 56% 39.2°F > 1/2 mi
I 80 First Divide 13.86 Oct 18, 2021 01:20 am Dry 45.3°F None None 9 mph 11 mph SW 24.8°F 43% 44.6°F > 1/2 mi
I 80 US 189 Interchange 17.66 Oct 18, 2021 01:20 am Dry 44.8°F None None 2 mph 2 mph E 26.6°F 60% 39.2°F > 1/2 mi
I 80 Coal Road 20.95 Oct 18, 2021 01:20 am Dry 47.1°F None None 6 mph 16 mph SW 24.8°F 39% 50.0°F > 1/2 mi
I 80 Leroy 23.35 Oct 18, 2021 01:20 am Dry 43.0°F None None 4 mph 4 mph SE 23.0°F 63% 33.8°F > 1/2 mi
I 80 French 27.6 Oct 18, 2021 01:20 am Dry 45.3°F None None 6 mph 8 mph S 24.8°F 48% 42.8°F > 1/2 mi
I 80 Church Butte 52.65 Oct 18, 2021 01:20 am Dry 43.0°F None None 3 mph 7 mph W 24.8°F 54% 41.0°F > 1/2 mi
I 80 Peru Hill 82.31 Oct 18, 2021 01:20 am Dry 46.2°F None None 15 mph 19 mph SE 26.6°F 41% 50.0°F > 1/2 mi
I 80 Green River Tunnel 90.5 Oct 18, 2021 01:20 am Dry 47.7°F None None 4 mph 10 mph NE 26.6°F 39% 50.0°F > 1/2 mi
I 80 Rock Springs West 97.9 Oct 18, 2021 01:20 am N/A   None None 4 mph 7 mph NE 26.6°F 44% 48.2°F > 1/2 mi
I 80 Baxter Road 111.5 Oct 18, 2021 01:20 am     None None 1 mph 4 mph NE 26.6°F 42% 48.2°F > 1/2 mi
I 80 Mile Marker 124.5 124.5 Oct 18, 2021 01:20 am Dry 41.7°F None None 1 mph 3 mph NE 26.6°F 56% 41.0°F > 1/2 mi
I 80 Point of Rocks 129.8 Oct 18, 2021 01:20 am Dry 44.1°F None None 7 mph 12 mph SW 28.4°F 43% 50.0°F > 1/2 mi
I 80 Bitter Creek 141.83 Oct 18, 2021 01:20 am Dry 45.7°F None None 14 mph 17 mph S 26.6°F 47% 44.6°F > 1/2 mi
I 80 Tipton 156.72 Oct 18, 2021 01:20 am Dry 42.1°F None None 14 mph 17 mph S 30.2°F 60% 42.8°F > 1/2 mi
I 80 Continental Divide 184.3 Oct 18, 2021 01:20 am     None None 6 mph 8 mph SW 28.4°F 61% 41.0°F > 1/2 mi
I 80 Sinclair 221.7 Oct 18, 2021 01:20 am Dry 47.8°F None None 9 mph 25 mph SE       > 1/2 mi
I 80 Walcott Junction 234.66 Oct 18, 2021 01:20 am Dry 43.3°F None None 16 mph 19 mph SE 28.4°F 48% 46.4°F > 1/2 mi
I 80 Dana Ridge 244.8 Oct 18, 2021 01:20 am Dry 46.9°F None None 17 mph 24 mph S 26.6°F 40% 50.0°F > 1/2 mi
I 80 Mile Marker 249.1 249.1 Oct 18, 2021 01:20 am N/A   None None 25 mph 33 mph NW 26.6°F 37% 51.8°F > 1/2 mi
I 80 Halleck Ridge 252.16 Oct 18, 2021 01:20 am Dry 47.3°F None None 34 mph 40 mph W 26.6°F 38% 51.8°F > 1/2 mi
I 80 Elk Mountain 256.17 Oct 18, 2021 01:20 am Trace Moisture 47.3°F None None 19 mph 34 mph S 26.6°F 36% 53.6°F > 1/2 mi
I 80 County Road 402 262 Oct 18, 2021 01:20 am Dry 45.7°F None None 13 mph 26 mph SE 26.6°F 41% 48.2°F > 1/2 mi
I 80 Wagonhound 266.58 Oct 18, 2021 01:20 am Dry 45.3°F None None 12 mph 17 mph SW 26.6°F 44% 46.4°F > 1/2 mi
I 80 Foote Creek 269.5 Oct 18, 2021 01:20 am Dry 46.2°F None None 19 mph 23 mph SW 24.8°F 37% 50.0°F > 1/2 mi
I 80 Arlington 271.8 Oct 18, 2021 01:20 am Dry 45.7°F None None 6 mph 16 mph NW 24.8°F 37% 50.0°F > 1/2 mi
I 80 Arlington East 273.85 Oct 18, 2021 01:20 am Dry 46.6°F None None 6 mph 11 mph SE 24.8°F 41% 48.2°F > 1/2 mi
I 80 Cooper Cove 279.36 Oct 18, 2021 01:20 am Dry 44.6°F None None 8 mph 15 mph NE 26.6°F 41% 50.0°F > 1/2 mi
I 80 Strouss Hill 283.75 Oct 18, 2021 01:20 am N/A   None None 7 mph 11 mph SW 24.8°F 40% 48.2°F > 1/2 mi
I 80 Quealy Dome 289.5 Oct 18, 2021 01:20 am N/A   None None 13 mph 17 mph S 26.6°F 40% 50.0°F > 1/2 mi
I 80 Herrick Lane 297.66 Oct 18, 2021 01:20 am Dry 41.2°F None None 1 mph 4 mph NE 24.8°F 62% 37.4°F > 1/2 mi
I 80 Summit East 325.8 Oct 18, 2021 01:20 am Dry 41.0°F None None 15 mph 20 mph SW 23.0°F 41% 46.4°F > 1/2 mi
I 80 Vedauwoo 329.4 Oct 18, 2021 01:20 am Dry 42.3°F None   14 mph 16 mph W 23.0°F 41% 44.6°F  
I 80 Lone Tree 333.32 Oct 18, 2021 01:20 am Dry 43.3°F None None 14 mph 18 mph W 23.0°F 39% 46.4°F > 1/2 mi
I 80 Buford East 336.1 Oct 18, 2021 01:20 am Dry 44.2°F None None 13 mph 16 mph SW 23.0°F 40% 46.4°F > 1/2 mi
I 80 Remount Road 340.5 Oct 18, 2021 01:20 am Wet 44.4°F None None 9 mph 11 mph NW 23.0°F 41% 46.4°F > 1/2 mi
I 80 Otto 347.69 Oct 18, 2021 01:20 am Dry 46.0°F None None 9 mph 11 mph   23.0°F 38% 48.2°F > 1/2 mi
I 80 MP 353 353 Oct 18, 2021 01:20 am Dry 48.2°F None None 8 mph 11 mph S 24.8°F 38% 48.2°F > 1/2 mi
I 80 Cheyenne East 373 Oct 18, 2021 01:20 am Trace Moisture 56.3°F None None 4 mph 7 mph W 19.4°F 41% 41.0°F > 1/2 mi
I 90 Montana State Line .1 Oct 18, 2021 01:20 am Dry 49.3°F None None 13 mph 20 mph S 32.0°F 44% 53.6°F > 1/2 mi
I 90 Pompey Creek 35.3 Oct 18, 2021 01:20 am Dry 47.1°F None None 4 mph 5 mph SE 26.6°F 41% 50.0°F > 1/2 mi
I 90 Sheridan/Johnson County Line 41.33 Oct 18, 2021 01:20 am Dry 45.7°F None None 6 mph 9 mph NW 24.8°F 30% 55.4°F > 1/2 mi
I 90 Piney Creek Interchange 44.7 Oct 18, 2021 01:20 am Dry 46.2°F None None 8 mph 9 mph W 24.8°F 37% 48.2°F > 1/2 mi
I 90 Kearny Divide 45.33 Oct 18, 2021 01:20 am N/A   Snow Slight 3 mph 3 mph SW   100%   > 1/2 mi
I 90 Indian Creek Road 83.3 Oct 18, 2021 01:20 am Dry 47.3°F None None 21 mph 25 mph SW 30.2°F 45% 51.8°F > 1/2 mi
I 90 Dead Horse 91.5 Oct 18, 2021 01:20 am Dry 50.9°F None None 9 mph 18 mph S 28.4°F 33% 57.2°F > 1/2 mi
I 90 Mile Marker 108 108 Oct 18, 2021 01:20 am Dry 46.4°F None None 21 mph 25 mph S 33.8°F 50% 51.8°F > 1/2 mi
I 90 Inyan Kara 170.5 Oct 18, 2021 01:20 am Dry 45.3°F None   7 mph 12 mph SE 35.6°F 56% 50.0°F  
I 90 Beulah 205.9 Oct 18, 2021 01:20 am Dry 49.3°F None None 4 mph 11 mph E 30.2°F 31% 60.8°F > 1/2 mi
US 14 Ucross 27.83 Oct 18, 2021 01:20 am Dry 37.4°F None None 0 mph 0 mph N 32.0°F 98% 32.0°F > 1/2 mi
US 14 Granite Pass 38.95 Oct 18, 2021 01:20 am N/A   None None 17 mph 22 mph NE 17.6°F 39% 41.0°F > 1/2 mi
US 16 Big Horn County Line 44.01 Oct 18, 2021 01:20 am Dry 32.9°F None None 6 mph 10 mph N 21.2°F 71% 30.2°F > 1/2 mi
US 191 Farson 40.45 Oct 18, 2021 01:20 am Dry 41.7°F None None 4 mph 7 mph NE 24.8°F 68% 33.8°F > 1/2 mi
US 191 Warren Bridge 119.9 Oct 18, 2021 01:20 am Dry 35.6°F None None 1 mph 2 mph W 23.0°F 77% 28.4°F > 1/2 mi
US 20 Natrona 30 Oct 18, 2021 01:20 am N/A   None None 10 mph 14 mph S 28.4°F 39% 53.6°F > 1/2 mi
US 20 Hiland 57.4 Oct 18, 2021 01:20 am Dry 48.0°F None None 28 mph 34 mph S 28.4°F 39% 51.8°F > 1/2 mi
US 20 Van Tassell 57.85 Oct 18, 2021 01:20 am Dry 40.6°F None None 2 mph 11 mph SW 28.4°F 58% 42.8°F > 1/2 mi
US 26 Wind River Lake 26.05 Oct 18, 2021 01:20 am Wet 32.5°F None None 1 mph 2 mph E 19.4°F 63% 30.2°F > 1/2 mi
US 287 Pumpkin Vine 420.4 Oct 18, 2021 01:20 am Dry 43.7°F None None 9 mph 15 mph NW 23.0°F 36% 48.2°F > 1/2 mi
US 30 Sage Junction 34 Oct 18, 2021 01:20 am Dry 43.3°F None None 7 mph 14 mph SE 26.6°F 60% 39.2°F > 1/2 mi
US 30 Nugget Canyon 39.7 Sep 27, 2021 12:52 pm                      
US 85 Gun Barrel 46.8 Oct 18, 2021 01:20 am Dry 45.0°F None None 9 mph 12 mph NW 21.2°F 39% 44.6°F > 1/2 mi
US 85 Four Corners 247.2 Oct 18, 2021 01:20 am Dry 39.2°F None None 11 mph 11 mph E 26.6°F 43% 48.2°F > 1/2 mi
WY 120 Meeteetse 61.5 Oct 18, 2021 01:20 am Dry 43.9°F None   8 mph 11 mph S -5.8°F 9% 48.2°F > 1/2 mi
WY 210 Wildcat Trail 21.52 Oct 18, 2021 01:20 am Dry 45.1°F None None 12 mph 14 mph SW 23.0°F 33% 50.0°F > 1/2 mi
WY 210 Hynds Lodge Road 24.55 Oct 18, 2021 01:20 am N/A   None None 11 mph 17 mph SW 23.0°F 33% 50.0°F > 1/2 mi
WY 22 Teton Pass 11.2 Oct 18, 2021 01:20 am Dry 35.8°F None None 4 mph 7 mph E 21.2°F 42% 41.0°F > 1/2 mi
WY 220 Pathfinder Hill 80.1 Oct 18, 2021 01:20 am Wet 44.4°F None None 13 mph 19 mph S 30.2°F 47% 48.2°F > 1/2 mi
WY 230 Skyline 230 113.2 Oct 18, 2021 01:20 am Dry 36.9°F None None 9 mph 12 mph SE 24.8°F 60% 39.2°F > 1/2 mi
WY 258 Outer Drive 13.77 Oct 18, 2021 01:20 am Dry 54.3°F None None 27 mph 45 mph SW 28.4°F 31% 59.0°F > 1/2 mi
WY 28 New South Pass 41.4 Oct 18, 2021 01:20 am N/A   None                
WY 28 Lower Red Canyon 59.71 Oct 18, 2021 01:20 am Dry 40.1°F None None 29 mph 38 mph S 24.8°F 40% 46.4°F > 1/2 mi
WY 296 Chief Joseph 32.96 Oct 18, 2021 01:20 am Wet 36.3°F None None 7 mph 9 mph W 19.4°F 37% 44.6°F > 1/2 mi
WY 372 Shute Creek 34 Oct 18, 2021 01:20 am N/A   None None 2 mph 4 mph NW 24.8°F 56% 39.2°F > 1/2 mi
WY 387 Pine Tree Junction 131.79 Oct 18, 2021 01:20 am Dry   None None 11 mph 14 mph E 32.0°F 48% 51.8°F > 1/2 mi
WY 487 Shirley Rim 37 Oct 18, 2021 01:20 am Dry 41.9°F None None 11 mph 15 mph S 30.2°F 54% 44.6°F > 1/2 mi
WY 59 Belle Fourche 87 Oct 18, 2021 01:20 am Dry 47.7°F None   12 mph 14 mph SW 33.8°F 50% 51.8°F  
WY 789 Beaver Rim 48.1 Oct 18, 2021 01:20 am     None None 15 mph 18 mph S 23.0°F 49% 41.0°F > 1/2 mi

Contact Us
Copyright 2021 Disclaimer Privacy Policy Media